createdAt,value
2023-07-08T00:01:21.767Z,101537.45
2023-07-08T00:03:49.733Z,101544.52
2023-07-08T00:06:29.343Z,101545.13
2023-07-08T00:08:57.008Z,101548.21
2023-07-08T00:11:24.179Z,101548.11
2023-07-08T00:13:51.024Z,101552.02
2023-07-08T00:16:20.406Z,101554.52
2023-07-08T00:18:50.022Z,101554.23
2023-07-08T00:21:18.773Z,101550.18
2023-07-08T00:23:47.781Z,101546.72
2023-07-08T00:26:25.378Z,101546.52
2023-07-08T00:28:53.098Z,101544.60
2023-07-08T00:31:25.819Z,101532.91
2023-07-08T00:33:57.019Z,101522.63
2023-07-08T00:36:28.029Z,101518.26
2023-07-08T00:38:54.945Z,101518.16
2023-07-08T00:41:24.189Z,101518.81
2023-07-08T00:43:56.863Z,101515.14
2023-07-08T00:46:41.642Z,101511.71
2023-07-08T00:49:18.503Z,101510.75
2023-07-08T00:51:46.480Z,101505.90
2023-07-08T00:54:18.512Z,101502.31
2023-07-08T00:57:04.363Z,101501.34
2023-07-08T00:59:37.233Z,101501.34
2023-07-08T01:02:07.588Z,101499.00
2023-07-08T01:05:19.286Z,101493.71
2023-07-08T01:07:55.125Z,101496.35
2023-07-08T01:10:33.720Z,101501.79
2023-07-08T01:13:04.963Z,101506.80
2023-07-08T01:15:40.926Z,101512.36
2023-07-08T01:18:10.714Z,101514.78
2023-07-08T01:20:38.379Z,101512.69
2023-07-08T01:23:07.294Z,101514.80
2023-07-08T01:25:34.946Z,101516.27
2023-07-08T01:28:04.498Z,101519.21
2023-07-08T01:30:37.158Z,101521.31
2023-07-08T01:33:13.598Z,101525.34
2023-07-08T01:35:40.361Z,101531.64
2023-07-08T01:38:12.605Z,101523.05
2023-07-08T01:40:50.387Z,101523.81
2023-07-08T01:43:17.436Z,101521.77
2023-07-08T01:45:44.923Z,101527.72
2023-07-08T01:48:16.584Z,101530.21
2023-07-08T01:50:58.186Z,101531.09
2023-07-08T01:53:44.907Z,101525.72
2023-07-08T01:56:15.503Z,101520.92
2023-07-08T01:58:42.983Z,101519.36
2023-07-08T02:01:10.058Z,101525.58
2023-07-08T02:03:37.390Z,101523.80
2023-07-08T02:06:06.451Z,101524.10
2023-07-08T02:08:33.553Z,101517.40
2023-07-08T02:11:00.464Z,101511.52
2023-07-08T02:13:29.171Z,101506.23
2023-07-08T02:15:55.951Z,101502.05
2023-07-08T02:18:25.974Z,101503.73
2023-07-08T02:20:52.938Z,101499.94
2023-07-08T02:23:20.238Z,101498.87
2023-07-08T02:25:55.253Z,101498.65
2023-07-08T02:28:24.587Z,101499.89
2023-07-08T02:30:54.640Z,101499.73
2023-07-08T02:33:21.413Z,101495.73
2023-07-08T02:35:50.524Z,101500.61
2023-07-08T02:40:59.336Z,101510.23
2023-07-08T02:43:27.257Z,101508.16
2023-07-08T02:45:54.080Z,101499.98
2023-07-08T02:48:21.550Z,101496.14
2023-07-08T02:50:57.402Z,101493.92
2023-07-08T02:53:25.722Z,101490.13
2023-07-08T02:55:52.608Z,101491.94
2023-07-08T02:58:19.338Z,101492.71
2023-07-08T03:00:46.104Z,101491.92
2023-07-08T03:03:13.060Z,101483.49
2023-07-08T03:05:40.777Z,101487.27
2023-07-08T03:08:07.553Z,101494.65
2023-07-08T03:10:34.285Z,101496.80
2023-07-08T03:13:06.141Z,101493.58
2023-07-08T03:15:32.956Z,101497.12
2023-07-08T03:18:01.135Z,101496.25
2023-07-08T03:20:28.415Z,101505.35
2023-07-08T03:22:55.806Z,101508.66
2023-07-08T03:25:22.896Z,101506.05
2023-07-08T03:27:50.200Z,101504.44
2023-07-08T03:30:17.599Z,101497.80
2023-07-08T03:32:44.526Z,101491.45
2023-07-08T03:35:12.048Z,101485.73
2023-07-08T03:37:41.992Z,101476.09
2023-07-08T03:40:13.906Z,101477.42
2023-07-08T03:42:40.705Z,101481.99
2023-07-08T03:45:09.284Z,101484.12
2023-07-08T03:47:38.527Z,101485.69
2023-07-08T03:50:07.540Z,101487.75
2023-07-08T03:52:35.500Z,101489.44
2023-07-08T03:55:04.789Z,101485.09
2023-07-08T03:57:31.677Z,101475.45
2023-07-08T03:59:59.726Z,101469.39
2023-07-08T04:02:27.059Z,101469.91
2023-07-08T04:04:55.060Z,101465.23
2023-07-08T04:07:23.483Z,101463.96
2023-07-08T04:09:53.123Z,101460.98
2023-07-08T04:12:19.936Z,101459.59
2023-07-08T04:14:50.033Z,101462.58
2023-07-08T04:17:19.438Z,101466.60
2023-07-08T04:19:46.198Z,101461.87
2023-07-08T04:22:12.952Z,101464.55
2023-07-08T04:24:40.352Z,101465.66
2023-07-08T04:27:07.174Z,101465.50
2023-07-08T04:29:33.984Z,101470.75
2023-07-08T04:32:01.025Z,101476.90
2023-07-08T04:34:27.803Z,101475.91
2023-07-08T04:36:54.541Z,101474.42
2023-07-08T04:39:21.254Z,101467.86
2023-07-08T04:41:48.436Z,101478.27
2023-07-08T04:44:18.027Z,101478.16
2023-07-08T04:46:58.359Z,101474.45
2023-07-08T04:49:26.104Z,101482.14
2023-07-08T04:51:54.072Z,101477.88
2023-07-08T04:54:21.057Z,101477.52
2023-07-08T04:56:50.367Z,101477.42
2023-07-08T04:59:21.037Z,101480.79
2023-07-08T05:01:50.316Z,101475.12
2023-07-08T05:04:19.664Z,101473.64
2023-07-08T05:06:47.216Z,101469.22
2023-07-08T05:09:17.264Z,101475.09
2023-07-08T05:11:44.839Z,101477.08
2023-07-08T05:14:13.894Z,101476.20
2023-07-08T05:16:41.805Z,101477.98
2023-07-08T05:19:09.206Z,101482.55
2023-07-08T05:21:36.134Z,101486.06
2023-07-08T05:24:05.475Z,101484.23
2023-07-08T05:26:33.425Z,101484.39
2023-07-08T05:29:00.977Z,101478.58
2023-07-08T05:31:45.507Z,101471.05
2023-07-08T05:34:17.088Z,101465.40
2023-07-08T05:36:44.638Z,101466.60
2023-07-08T05:39:11.900Z,101465.77
2023-07-08T05:41:38.651Z,101465.45
2023-07-08T05:44:05.502Z,101460.88
2023-07-08T05:46:34.787Z,101455.74
2023-07-08T05:49:02.144Z,101446.69
2023-07-08T05:51:29.204Z,101448.15
2023-07-08T05:53:55.886Z,101449.23
2023-07-08T05:56:22.889Z,101446.09
2023-07-08T05:58:49.620Z,101445.06
2023-07-08T06:01:16.350Z,101450.53
2023-07-08T06:03:44.835Z,101448.59
2023-07-08T06:06:13.018Z,101449.89
2023-07-08T06:08:40.060Z,101440.37
2023-07-08T06:11:07.023Z,101440.27
2023-07-08T06:13:34.383Z,101434.64
2023-07-08T06:16:02.017Z,101432.12
2023-07-08T06:18:30.462Z,101435.94
2023-07-08T06:20:59.436Z,101435.14
2023-07-08T06:23:27.003Z,101429.64
2023-07-08T06:25:54.698Z,101428.77
2023-07-08T06:28:24.183Z,101424.94
2023-07-08T06:30:51.159Z,101429.38
2023-07-08T06:33:17.930Z,101431.82
2023-07-08T06:35:45.605Z,101429.35
2023-07-08T06:38:12.710Z,101430.27
2023-07-08T06:40:39.690Z,101434.17
2023-07-08T06:43:06.387Z,101433.16
2023-07-08T06:45:39.035Z,101426.36
2023-07-08T06:48:06.607Z,101422.36
2023-07-08T06:50:33.549Z,101426.80
2023-07-08T06:53:00.332Z,101424.04
2023-07-08T06:55:28.189Z,101418.24
2023-07-08T06:57:55.007Z,101425.30
2023-07-08T07:00:21.750Z,101433.50
2023-07-08T07:02:48.531Z,101436.81
2023-07-08T07:05:15.607Z,101441.34
2023-07-08T07:07:42.404Z,101448.58
2023-07-08T07:10:09.402Z,101452.25
2023-07-08T07:12:36.663Z,101458.84
2023-07-08T07:15:06.060Z,101466.22
2023-07-08T07:17:33.047Z,101469.60
2023-07-08T07:19:59.831Z,101466.86
2023-07-08T07:22:26.578Z,101467.37
2023-07-08T07:24:54.639Z,101462.19
2023-07-08T07:27:21.562Z,101456.05
2023-07-08T07:29:51.026Z,101448.27
2023-07-08T07:32:20.383Z,101444.67
2023-07-08T07:34:49.911Z,101446.38
2023-07-08T07:37:19.135Z,101445.96
2023-07-08T07:39:49.579Z,101447.09
2023-07-08T07:42:18.954Z,101441.15
2023-07-08T07:44:48.049Z,101434.54
2023-07-08T07:47:16.160Z,101434.88
2023-07-08T07:49:44.238Z,101440.27
2023-07-08T07:52:12.236Z,101445.13
2023-07-08T07:54:40.380Z,101443.66
2023-07-08T07:57:07.543Z,101455.17
2023-07-08T07:59:34.526Z,101459.22
2023-07-08T08:02:02.946Z,101467.13
2023-07-08T08:04:30.071Z,101467.23
2023-07-08T08:06:59.352Z,101474.39
2023-07-08T08:09:26.168Z,101472.13
2023-07-08T08:11:53.299Z,101475.70
2023-07-08T08:14:20.527Z,101474.41
2023-07-08T08:16:48.750Z,101468.59
2023-07-08T08:19:17.181Z,101470.23
2023-07-08T08:21:43.928Z,101474.48
2023-07-08T08:24:12.433Z,101474.63
2023-07-08T08:26:43.587Z,101473.98
2023-07-08T08:29:12.954Z,101466.14
2023-07-08T08:31:41.247Z,101467.92
2023-07-08T08:34:08.218Z,101479.50
2023-07-08T08:36:37.106Z,101481.07
2023-07-08T08:39:04.371Z,101471.77
2023-07-08T08:41:34.684Z,101469.94
2023-07-08T08:44:03.777Z,101467.73
2023-07-08T08:47:09.633Z,101472.25
2023-07-08T08:49:52.025Z,101472.27
2023-07-08T08:52:18.993Z,101468.69
2023-07-08T08:54:45.747Z,101476.83
2023-07-08T08:57:13.617Z,101481.20
2023-07-08T08:59:54.830Z,101480.87
2023-07-08T09:02:34.393Z,101476.95
2023-07-08T09:05:08.886Z,101475.27
2023-07-08T09:08:00.370Z,101474.91
2023-07-08T09:10:40.727Z,101475.46
2023-07-08T09:13:11.225Z,101477.41
2023-07-08T09:15:39.533Z,101480.02
2023-07-08T09:18:31.243Z,101478.61
2023-07-08T09:21:02.334Z,101480.89
2023-07-08T09:23:35.259Z,101484.83
2023-07-08T09:26:17.891Z,101483.55
2023-07-08T09:28:47.324Z,101486.05
2023-07-08T09:31:39.624Z,101492.29
2023-07-08T09:34:25.349Z,101494.36
2023-07-08T09:36:53.509Z,101495.59
2023-07-08T09:39:22.600Z,101490.68
2023-07-08T09:41:51.094Z,101493.33
2023-07-08T09:44:31.389Z,101492.46
2023-07-08T09:47:00.742Z,101494.01
2023-07-08T09:49:35.108Z,101498.58
2023-07-08T09:52:06.290Z,101499.05
2023-07-08T09:54:35.938Z,101498.70
2023-07-08T09:57:15.650Z,101492.84
2023-07-08T09:59:49.159Z,101491.86
2023-07-08T10:02:36.395Z,101490.84
2023-07-08T10:05:25.447Z,101486.84
2023-07-08T10:07:58.582Z,101490.98
2023-07-08T10:10:35.523Z,101491.63
2023-07-08T10:13:19.416Z,101483.70
2023-07-08T10:15:59.123Z,101486.22
2023-07-08T10:18:31.000Z,101479.71
2023-07-08T10:21:25.734Z,101484.39
2023-07-08T10:24:13.333Z,101481.02
2023-07-08T10:27:33.643Z,101480.73
2023-07-08T10:30:21.387Z,101474.42
2023-07-08T10:33:21.037Z,101467.10
2023-07-08T10:36:22.972Z,101465.04
2023-07-08T10:39:23.573Z,101463.45
2023-07-08T10:42:00.334Z,101456.40
2023-07-08T10:44:55.247Z,101453.37
2023-07-08T10:48:01.879Z,101451.20
2023-07-08T10:51:08.159Z,101443.04
2023-07-08T10:53:57.979Z,101436.09
2023-07-08T10:56:32.499Z,101442.51
2023-07-08T10:59:21.594Z,101441.89
2023-07-08T11:02:06.715Z,101440.86
2023-07-08T11:04:53.727Z,101442.55
2023-07-08T11:07:43.420Z,101441.13
2023-07-08T11:10:47.926Z,101441.95
2023-07-08T11:13:21.072Z,101439.65
2023-07-08T11:15:59.570Z,101434.94
2023-07-08T11:18:49.757Z,101425.80
2023-07-08T11:21:44.868Z,101420.36
2023-07-08T11:24:20.959Z,101416.27
2023-07-08T11:27:03.666Z,101419.00
2023-07-08T11:29:42.432Z,101417.64
2023-07-08T11:32:16.762Z,101417.47
2023-07-08T11:34:50.490Z,101412.08
2023-07-08T11:37:22.306Z,101410.08
2023-07-08T11:39:59.937Z,101404.13
2023-07-08T11:42:26.590Z,101403.38
2023-07-08T11:44:59.541Z,101401.70
2023-07-08T11:47:47.735Z,101394.36
2023-07-08T11:50:40.057Z,101386.60
2023-07-08T11:53:32.906Z,101383.85
2023-07-08T11:56:00.778Z,101377.86
2023-07-08T11:58:29.591Z,101375.57
2023-07-08T12:01:11.660Z,101371.86
2023-07-08T12:03:48.033Z,101371.23
2023-07-08T12:06:33.394Z,101369.23
2023-07-08T12:09:17.849Z,101369.97
2023-07-08T12:11:47.330Z,101362.79
2023-07-08T12:14:19.265Z,101359.80
2023-07-08T12:16:46.008Z,101351.78
2023-07-08T12:19:19.571Z,101348.41
2023-07-08T12:21:47.839Z,101346.77
2023-07-08T12:24:16.071Z,101340.78
2023-07-08T12:26:45.757Z,101338.70
2023-07-08T12:29:16.098Z,101339.14
2023-07-08T12:31:44.051Z,101337.31
2023-07-08T12:34:18.595Z,101334.86
2023-07-08T12:36:48.390Z,101333.39
2023-07-08T12:39:18.371Z,101330.30
2023-07-08T12:41:48.738Z,101332.68
2023-07-08T12:44:26.498Z,101327.58
2023-07-08T12:46:56.767Z,101327.33
2023-07-08T12:49:29.432Z,101326.73
2023-07-08T12:51:56.259Z,101319.02
2023-07-08T12:54:23.489Z,101321.43
2023-07-08T12:56:54.543Z,101318.17
2023-07-08T12:59:25.719Z,101321.48
2023-07-08T13:01:54.755Z,101320.63
2023-07-08T13:04:21.851Z,101319.91
2023-07-08T13:06:49.768Z,101322.02
2023-07-08T13:09:40.913Z,101322.84
2023-07-08T13:12:24.721Z,101321.59
2023-07-08T13:14:54.782Z,101324.50
2023-07-08T13:17:23.442Z,101326.84
2023-07-08T13:19:50.869Z,101329.65
2023-07-08T13:22:22.278Z,101326.91
2023-07-08T13:25:00.338Z,101326.17
2023-07-08T13:27:28.172Z,101322.80
2023-07-08T13:30:18.196Z,101321.03
2023-07-08T13:32:49.747Z,101316.70
2023-07-08T13:35:44.076Z,101316.71
2023-07-08T13:38:17.532Z,101317.84
2023-07-08T13:40:55.216Z,101317.86
2023-07-08T13:43:28.181Z,101316.33
2023-07-08T13:45:57.304Z,101319.84
2023-07-08T13:48:28.047Z,101318.93
2023-07-08T13:50:59.222Z,101320.24
2023-07-08T13:53:39.754Z,101323.79
2023-07-08T13:56:24.705Z,101315.17
2023-07-08T13:58:54.360Z,101308.69
2023-07-08T14:01:27.242Z,101306.21
2023-07-08T14:03:58.977Z,101305.95
2023-07-08T14:06:30.364Z,101300.48
2023-07-08T14:09:19.091Z,101296.44
2023-07-08T14:11:47.262Z,101294.02
2023-07-08T14:14:14.168Z,101295.59
2023-07-08T14:16:47.464Z,101295.33
2023-07-08T14:19:33.193Z,101296.10
2023-07-08T14:22:22.112Z,101286.25
2023-07-08T14:24:50.439Z,101284.27
2023-07-08T14:27:18.828Z,101285.16
2023-07-08T14:29:53.507Z,101282.45
2023-07-08T14:32:32.217Z,101287.34
2023-07-08T14:35:09.774Z,101286.17
2023-07-08T14:37:36.538Z,101284.74
2023-07-08T14:40:29.205Z,101283.11
2023-07-08T14:43:10.593Z,101281.95
2023-07-08T14:45:45.697Z,101281.05
2023-07-08T14:48:15.226Z,101282.12
2023-07-08T14:50:42.622Z,101280.88
2023-07-08T14:53:09.792Z,101277.83
2023-07-08T14:55:37.301Z,101275.84
2023-07-08T14:58:05.313Z,101269.75
2023-07-08T15:00:32.139Z,101270.23
2023-07-08T15:02:59.532Z,101267.66
2023-07-08T15:05:30.118Z,101270.09
2023-07-08T15:07:59.607Z,101265.42
2023-07-08T15:10:29.649Z,101263.22
2023-07-08T15:12:59.492Z,101260.20
2023-07-08T15:15:32.348Z,101261.80
2023-07-08T15:18:05.867Z,101258.77
2023-07-08T15:20:34.135Z,101254.45
2023-07-08T15:23:05.172Z,101249.67
2023-07-08T15:25:32.193Z,101251.50
2023-07-08T15:28:01.741Z,101244.30
2023-07-08T15:30:29.886Z,101244.46
2023-07-08T15:32:58.091Z,101244.08
2023-07-08T15:35:34.532Z,101242.75
2023-07-08T15:38:05.240Z,101241.02
2023-07-08T15:40:42.559Z,101241.27
2023-07-08T15:43:17.478Z,101236.69
2023-07-08T15:45:45.893Z,101231.36
2023-07-08T15:48:15.808Z,101233.04
2023-07-08T15:50:49.295Z,101225.85
2023-07-08T15:53:19.427Z,101222.81
2023-07-08T15:55:54.971Z,101226.05
2023-07-08T15:58:29.636Z,101224.98
2023-07-08T16:00:57.050Z,101227.77
2023-07-08T16:03:33.449Z,101223.27
2023-07-08T16:06:00.905Z,101221.23
2023-07-08T16:08:27.820Z,101222.60
2023-07-08T16:11:05.180Z,101221.84
2023-07-08T16:13:39.279Z,101218.70
2023-07-08T16:16:09.078Z,101217.91
2023-07-08T16:18:35.795Z,101218.02
2023-07-08T16:21:03.272Z,101216.44
2023-07-08T16:23:30.895Z,101213.92
2023-07-08T16:25:58.511Z,101211.40
2023-07-08T16:29:34.132Z,101206.60
2023-07-08T16:32:03.137Z,101208.36
2023-07-08T16:34:29.960Z,101205.19
2023-07-08T16:37:01.128Z,101202.94
2023-07-08T16:39:28.345Z,101204.13
2023-07-08T16:41:57.883Z,101203.82
2023-07-08T16:44:24.724Z,101204.63
2023-07-08T16:46:52.636Z,101201.02
2023-07-08T16:49:22.269Z,101201.02
2023-07-08T16:51:48.955Z,101204.25
2023-07-08T16:54:18.541Z,101207.58
2023-07-08T16:56:46.521Z,101211.57
2023-07-08T16:59:15.321Z,101207.36
2023-07-08T17:01:42.797Z,101201.14
2023-07-08T17:04:13.975Z,101200.35
2023-07-08T17:06:42.511Z,101196.23
2023-07-08T17:09:14.016Z,101198.27
2023-07-08T17:11:41.716Z,101195.88
2023-07-08T17:14:10.373Z,101196.14
2023-07-08T17:16:44.381Z,101194.70
2023-07-08T17:19:19.648Z,101193.28
2023-07-08T17:21:48.622Z,101196.00
2023-07-08T17:24:22.529Z,101191.61
2023-07-08T17:26:54.198Z,101191.88
2023-07-08T17:29:20.930Z,101195.29
2023-07-08T17:31:50.463Z,101194.24
2023-07-08T17:34:22.819Z,101199.45
2023-07-08T17:36:50.300Z,101196.17
2023-07-08T17:39:17.451Z,101198.59
2023-07-08T17:41:46.279Z,101203.56
2023-07-08T17:44:13.526Z,101203.45
2023-07-08T17:46:40.434Z,101200.61
2023-07-08T17:49:12.478Z,101203.57
2023-07-08T17:51:40.666Z,101205.20
2023-07-08T17:54:17.622Z,101204.27
2023-07-08T17:56:49.454Z,101205.27
2023-07-08T17:59:20.987Z,101205.22
2023-07-08T18:01:49.480Z,101198.60
2023-07-08T18:04:19.229Z,101200.86
2023-07-08T18:06:45.890Z,101202.61
2023-07-08T18:09:13.344Z,101204.04
2023-07-08T18:11:47.583Z,101209.71
2023-07-08T18:14:14.711Z,101212.58
2023-07-08T18:16:41.873Z,101213.40
2023-07-08T18:19:10.214Z,101217.55
2023-07-08T18:21:37.128Z,101220.84
2023-07-08T18:24:06.231Z,101223.30
2023-07-08T18:26:33.752Z,101226.66
2023-07-08T18:29:02.592Z,101224.00
2023-07-08T18:31:38.546Z,101221.80
2023-07-08T18:34:09.237Z,101222.09
2023-07-08T18:36:37.843Z,101223.98
2023-07-08T18:39:04.962Z,101228.23
2023-07-08T18:41:42.958Z,101233.53
2023-07-08T18:44:17.576Z,101230.70
2023-07-08T18:46:44.361Z,101231.05
2023-07-08T18:49:14.556Z,101238.01
2023-07-08T18:51:45.341Z,101239.86
2023-07-08T18:54:18.808Z,101242.79
2023-07-08T18:56:46.571Z,101245.36
2023-07-08T18:59:16.917Z,101248.79
2023-07-08T19:01:46.189Z,101251.10
2023-07-08T19:04:21.677Z,101253.16
2023-07-08T19:06:49.938Z,101254.14
2023-07-08T19:09:17.374Z,101260.94
2023-07-08T19:11:47.029Z,101261.66
2023-07-08T19:14:19.145Z,101262.98
2023-07-08T19:16:46.057Z,101266.88
2023-07-08T19:19:15.329Z,101273.66
2023-07-08T19:21:43.912Z,101278.44
2023-07-08T19:26:45.292Z,101282.64
2023-07-08T19:29:12.006Z,101283.27
2023-07-08T19:31:48.309Z,101290.63
2023-07-08T19:34:18.726Z,101292.44
2023-07-08T19:36:47.967Z,101294.04
2023-07-08T19:39:16.628Z,101296.47
2023-07-08T19:41:46.292Z,101298.06
2023-07-08T19:44:24.252Z,101301.81
2023-07-08T19:46:51.099Z,101301.39
2023-07-08T19:49:18.215Z,101304.45
2023-07-08T19:51:45.438Z,101308.59
2023-07-08T19:54:12.289Z,101307.73
2023-07-08T19:56:39.762Z,101307.30
2023-07-08T19:59:11.173Z,101312.67
2023-07-08T20:01:39.013Z,101318.35
2023-07-08T20:04:05.948Z,101319.14
2023-07-08T20:06:32.879Z,101318.05
2023-07-08T20:08:59.897Z,101323.31
2023-07-08T20:11:29.122Z,101326.42
2023-07-08T20:13:55.903Z,101328.67
2023-07-08T20:16:26.076Z,101332.15
2023-07-08T20:18:53.418Z,101334.71
2023-07-08T20:21:22.627Z,101338.64
2023-07-08T20:23:53.338Z,101338.98
2023-07-08T20:26:34.160Z,101342.63
2023-07-08T20:29:00.978Z,101344.56
2023-07-08T20:31:28.494Z,101347.89
2023-07-08T20:33:56.614Z,101353.48
2023-07-08T20:36:25.816Z,101354.27
2023-07-08T20:38:53.421Z,101358.75
2023-07-08T20:41:20.434Z,101354.98
2023-07-08T20:43:47.201Z,101357.67
2023-07-08T20:46:33.728Z,101356.23
2023-07-08T20:49:04.297Z,101351.98
2023-07-08T20:51:34.454Z,101356.39
2023-07-08T20:54:03.613Z,101355.19
2023-07-08T20:56:33.967Z,101356.77
2023-07-08T20:59:04.858Z,101358.15
2023-07-08T21:01:33.725Z,101358.08
2023-07-08T21:04:01.665Z,101364.79
2023-07-08T21:06:35.408Z,101376.39
2023-07-08T21:09:03.431Z,101381.61
2023-07-08T21:11:30.700Z,101389.64
2023-07-08T21:13:58.272Z,101396.76
2023-07-08T21:16:27.712Z,101395.19
2023-07-08T21:19:02.799Z,101398.71
2023-07-08T21:21:29.665Z,101404.25
2023-07-08T21:23:57.685Z,101399.60
2023-07-08T21:26:31.348Z,101396.05
2023-07-08T21:29:01.484Z,101399.17
2023-07-08T21:31:29.794Z,101405.05
2023-07-08T21:33:56.687Z,101403.73
2023-07-08T21:36:29.650Z,101400.78
2023-07-08T21:39:05.130Z,101401.09
2023-07-08T21:41:38.044Z,101401.91
2023-07-08T21:44:04.723Z,101400.98
2023-07-08T21:46:32.748Z,101404.31
2023-07-08T21:48:59.527Z,101404.92
2023-07-08T21:51:29.682Z,101407.89
2023-07-08T21:53:57.686Z,101415.00
2023-07-08T21:56:26.282Z,101409.19
2023-07-08T21:58:54.008Z,101410.96
2023-07-08T22:01:28.604Z,101409.27
2023-07-08T22:03:57.297Z,101403.90
2023-07-08T22:06:25.173Z,101406.07
2023-07-08T22:08:52.082Z,101404.94
2023-07-08T22:11:32.376Z,101405.36
2023-07-08T22:14:02.113Z,101405.23
2023-07-08T22:16:31.705Z,101405.08
2023-07-08T22:18:59.563Z,101400.67
2023-07-08T22:21:33.254Z,101401.54
2023-07-08T22:24:08.384Z,101398.27
2023-07-08T22:26:43.926Z,101400.51
2023-07-08T22:29:23.797Z,101402.39
2023-07-08T22:31:53.355Z,101404.01
2023-07-08T22:34:20.055Z,101402.06
2023-07-08T22:36:47.787Z,101401.99
2023-07-08T22:39:14.951Z,101408.51
2023-07-08T22:41:54.865Z,101416.23
2023-07-08T22:44:24.372Z,101415.34
2023-07-08T22:46:52.217Z,101420.48
2023-07-08T22:49:25.549Z,101419.46
2023-07-08T22:51:57.243Z,101417.54
2023-07-08T22:54:25.267Z,101418.45
2023-07-08T22:56:52.675Z,101418.42
2023-07-08T22:59:19.549Z,101423.06
2023-07-08T23:01:47.626Z,101421.95
2023-07-08T23:04:14.449Z,101424.65
2023-07-08T23:06:44.222Z,101423.36
2023-07-08T23:09:18.712Z,101423.51
2023-07-08T23:11:46.112Z,101420.64
2023-07-08T23:14:13.019Z,101423.15
2023-07-08T23:16:42.126Z,101424.11
2023-07-08T23:19:12.968Z,101422.65
2023-07-08T23:21:40.488Z,101423.73
2023-07-08T23:24:10.801Z,101421.27
2023-07-08T23:26:40.048Z,101421.85
2023-07-08T23:29:10.178Z,101422.35
2023-07-08T23:31:37.239Z,101424.64
2023-07-08T23:34:05.735Z,101424.23
2023-07-08T23:36:41.323Z,101428.41
2023-07-08T23:39:18.024Z,101426.71
2023-07-08T23:41:47.679Z,101430.25
2023-07-08T23:44:17.081Z,101429.87
2023-07-08T23:46:46.773Z,101430.96
2023-07-08T23:49:28.878Z,101432.55
2023-07-08T23:51:57.725Z,101427.98
2023-07-08T23:54:29.921Z,101428.03
2023-07-08T23:57:02.725Z,101427.64
2023-07-08T23:59:33.456Z,101431.67
